ADDS METAR Data INFO
IDs: Format: Raw Decoded Include TAF

Data at: 0211 UTC 17 Aug 2018

PALG 170156Z AUTO VRB03KT 10SM SCT035 BKN070 14/09 A2997 RMK AO2 SLP155 T01440094 PWINO
PALG 162356Z AUTO VRB04KT 10SM FEW025 OVC070 14/09 A2998 RMK AO2 SLP159 T01390094 10156 20094 53000 PWINO
PALG 162256Z AUTO VRB04KT 10SM FEW028 BKN055 OVC070 14/09 A2998 RMK AO2 SLP158 T01440094 PWINO
PALG 162156Z AUTO 20007KT 9SM FEW030 BKN041 OVC060 16/08 A2998 RMK AO2 SLP157 T01560078 PWINO
PALG 162114Z AUTO 23006KT 10SM SCT027 BKN070 15/09 A2998 RMK AO2 PWINO
PALG 162056Z AUTO 00000KT 9SM BKN027 14/09 A2998 RMK AO2 SLP158 T01440094 58001 PWINO
PALG 162018Z AUTO VRB03KT 10SM BKN019 14/10 A2999 RMK AO2 PWINO
PALG 161956Z AUTO 00000KT 10SM FEW011 SCT070 13/10 A2999 RMK AO2 SLP161 T01280100 PWINO
PALG 161935Z AUTO VRB03KT 10SM SCT007 BKN070 12/09 A2999 RMK AO2 PWINO
PALG 161911Z AUTO 16003KT 10SM OVC007 11/09 A2999 RMK AO2 PWINO
PALG 161856Z AUTO 00000KT 10SM OVC005 11/09 A2999 RMK AO2 CIG 004V008 SLP161 T01060094 PWINO
PALG 161846Z AUTO 00000KT 10SM OVC005 10/09 A2999 RMK AO2 CIG 004V008 PWINO
PALG 161756Z AUTO 00000KT 10SM OVC003 09/09 A2998 RMK AO2 SLP159 T00940089 10094 20072 51006 PWINO
PALG 161740Z AUTO VRB03KT 3SM BR OVC003 09/09 A2998 RMK AO2 PWINO
PALG 161734Z AUTO 00000KT 1 1/2SM BR OVC003 09/09 A2998 RMK AO2 VIS 3/4V5 PWINO
PALG 161722Z AUTO 14003KT 1SM BR OVC003 09/09 A2998 RMK AO2 VIS 1/4V5 PWINO
PALG 161714Z AUTO 00000KT 1/2SM FG OVC003 09/09 A2998 RMK AO2 PWINO
PALG 161656Z AUTO VRB03KT 1/4SM FG OVC003 09/09 A2998 RMK AO2 SLP157 T00890089 PWINO
PALG 161556Z AUTO 00000KT 1/4SM FG OVC003 08/08 A2997 RMK AO2 SLP155 T00830083 PWINO
PALG 161528Z AUTO 00000KT 1/2SM FG OVC003 09/08 A2997 RMK AO2 PWINO
PALG 161520Z AUTO 00000KT 3/4SM BR OVC003 09/08 A2997 RMK AO2 PWINO
PALG 161515Z AUTO 00000KT 1 3/4SM BR OVC003 09/08 A2997 RMK AO2 VIS 1V5 PWINO
PALG 161456Z AUTO 00000KT 9SM OVC003 09/09 A2997 RMK AO2 SLP153 T00890089 53003 PWINO
PALG 161417Z AUTO 00000KT 10SM OVC003 09/09 A2997 RMK AO2 PWINO
PALG 161356Z AUTO 00000KT 10SM OVC005 09/09 A2996 RMK AO2 SLP151 T00890089 PWINO
PALG 161256Z AUTO 00000KT 10SM OVC005 08/08 A2996 RMK AO2 SLP151 T00780078 PWINO
PALG 161234Z AUTO 00000KT 10SM BKN005 OVC065 08/07 A2996 RMK AO2 PWINO
PALG 161224Z AUTO 00000KT 10SM SCT005 OVC065 07/07 A2996 RMK AO2 PWINO
PALG 161156Z AUTO 00000KT 10SM OVC065 08/08 A2996 RMK AO2 SLP149 T00780078 10150 20072 51006 PWINO
PALG 161145Z AUTO 00000KT 10SM FEW005 OVC065 08/07 A2996 RMK AO2 PWINO
PALG 161056Z AUTO 00000KT 10SM SCT065 08/08 A2996 RMK AO2 SLP149 T00780078 PWINO
PALG 160956Z AUTO 00000KT 10SM OVC070 08/07 A2995 RMK AO2 SLP147 T00780072 PWINO
PALG 160856Z AUTO 00000KT 10SM OVC070 09/09 A2994 RMK AO2 SLP143 T00940089 401670028 51008 PWINO
PALG 160756Z AUTO 00000KT 10SM OVC070 12/08 A2993 RMK AO2 SLP142 T01170078 PWINO
PALG 160656Z AUTO 00000KT 10SM OVC060 12/09 A2992 RMK AO2 SLP138 T01170089 PWINO
PALG 160556Z AUTO 00000KT 10SM OVC065 15/07 A2992 RMK AO2 SLP135 T01500072 10167 20133 53003 PWINO
PALG 160456Z AUTO 00000KT 10SM OVC065 16/05 A2991 RMK AO2 SLP133 T01610050 PWINO
PALG 160356Z AUTO 00000KT 10SM CLR 16/06 A2991 RMK AO2 SLP132 T01610061 PWINO
PALG 160256Z AUTO 00000KT 10SM CLR 13/09 A2991 RMK AO2 SLP132 T01330089 56004 PWINO
PALG 160156Z AUTO 00000KT 10SM CLR 16/04 A2991 RMK AO2 SLP132 T01560044 PWINO
PALG 160056Z AUTO 00000KT 10SM FEW050 16/05 A2991 RMK AO2 SLP133 T01560050 PWINO
PALG 152356Z AUTO 00000KT 10SM CLR 15/04 A2992 RMK AO2 SLP137 T01500044 10156 20089 58004 PWINO
PALG 152256Z AUTO VRB03KT 10SM CLR 14/05 A2992 RMK AO2 SLP138 T01440050 PWINO
PALG 152156Z AUTO 12004KT 10SM CLR 14/06 A2993 RMK AO2 SLP139 T01390061 PWINO
PALG 152056Z AUTO 08005KT 10SM CLR 13/07 A2993 RMK AO2 SLP140 T01280072 51000 PWINO
PALG 151956Z AUTO 09007KT 10SM CLR 11/06 A2993 RMK AO2 SLP140 T01110056 PWINO
PALG 151856Z AUTO VRB04KT 10SM CLR 10/06 A2993 RMK AO2 SLP142 T01000061 PWINO
PALG 151756Z AUTO VRB06KT 10SM CLR 09/06 A2993 RMK AO2 SLP140 T00890061 10089 20028 53004 PWINO
PALG 151656Z AUTO 09004KT 10SM CLR 07/06 A2992 RMK AO2 SLP137 T00670056 PWINO
PALG 151556Z AUTO 00000KT 10SM CLR 05/04 A2992 RMK AO2 SLP137 T00500044 PWINO
PALG 151456Z AUTO 00000KT 10SM CLR 04/04 A2992 RMK AO2 SLP136 T00390039 52001 PWINO